White Sulphur Springs, West Virginia
Current Conditions -  °F | °C
As of 12:35 AM on Thursday 23 Oct 2014 (Local Time) from KLWB Reporting Station
Overcast Overcast  
Wind Chill: 42°   Ceiling: 1400
Heat Index: 45°   Visibility: 10mi
Dew Point: 38°   Wind: 6mph
Humidity: 77%   Direction: 340°NNW
Pressure: 30.13"   Gusts: NA
Location:  37.8°N, 80.3°W
Report Text: KLWB 230435Z AUTO 34005KT 10SM OVC014 07/04 A3013 RMK AO2 T00730036
Loading
Personal Weather Stations






























Interactive Weather Map
Tropical Storm Tracking
New forecast layout! Learn more

10-Day Weather Forecast

Advertisements
Track Severe Weather on mobile